地図

経路データ

SID SEASON NUMBER BASIN SUBBASIN NAME ISO_TIME NATURE LAT LON WMO_WIND WMO_PRES WMO_AGENCY TRACK_TYPE DIST2LAND LANDFALL IFLAG USA_AGENCY USA_ATCF_ID USA_LAT USA_LON USA_RECORD USA_STATUS USA_WIND USA_PRES USA_SSHS USA_R34_NE USA_R34_SE USA_R34_SW USA_R34_NW USA_R50_NE USA_R50_SE USA_R50_SW USA_R50_NW USA_R64_NE USA_R64_SE USA_R64_SW USA_R64_NW USA_POCI USA_ROCI USA_RMW USA_EYE TOKYO_LAT TOKYO_LON TOKYO_GRADE TOKYO_WIND TOKYO_PRES TOKYO_R50_DIR TOKYO_R50_LONG TOKYO_R50_SHORT TOKYO_R30_DIR TOKYO_R30_LONG TOKYO_R30_SHORT TOKYO_LAND CMA_LAT CMA_LON CMA_CAT CMA_WIND CMA_PRES HKO_LAT HKO_LON HKO_CAT HKO_WIND HKO_PRES NEWDELHI_LAT NEWDELHI_LON NEWDELHI_GRADE NEWDELHI_WIND NEWDELHI_PRES NEWDELHI_CI NEWDELHI_DP NEWDELHI_POCI REUNION_LAT REUNION_LON REUNION_TYPE REUNION_WIND REUNION_PRES REUNION_TNUM REUNION_CI REUNION_RMW REUNION_R34_NE REUNION_R34_SE REUNION_R34_SW REUNION_R34_NW REUNION_R50_NE REUNION_R50_SE REUNION_R50_SW REUNION_R50_NW REUNION_R64_NE REUNION_R64_SE REUNION_R64_SW REUNION_R64_NW BOM_LAT BOM_LON BOM_TYPE BOM_WIND BOM_PRES BOM_TNUM BOM_CI BOM_RMW BOM_R34_NE BOM_R34_SE BOM_R34_SW BOM_R34_NW BOM_R50_NE BOM_R50_SE BOM_R50_SW BOM_R50_NW BOM_R64_NE BOM_R64_SE BOM_R64_SW BOM_R64_NW BOM_ROCI BOM_POCI BOM_EYE BOM_POS_METHOD BOM_PRES_METHOD NADI_LAT NADI_LON NADI_CAT NADI_WIND NADI_PRES WELLINGTON_LAT WELLINGTON_LON WELLINGTON_WIND WELLINGTON_PRES DS824_LAT DS824_LON DS824_STAGE DS824_WIND DS824_PRES TD9636_LAT TD9636_LON TD9636_STAGE TD9636_WIND TD9636_PRES TD9635_LAT TD9635_LON TD9635_WIND TD9635_PRES TD9635_ROCI NEUMANN_LAT NEUMANN_LON NEUMANN_CLASS NEUMANN_WIND NEUMANN_PRES MLC_LAT MLC_LON MLC_CLASS MLC_WIND MLC_PRES USA_GUST BOM_GUST BOM_GUST_PER REUNION_GUST REUNION_GUST_PER USA_SEAHGT USA_SEARAD_NE USA_SEARAD_SE USA_SEARAD_SW USA_SEARAD_NW STORM_SPEED STORM_DIR
1925153S19152 1925 21 SP EA NOT_NAMED 1925-06-01 12:00:00 NR -19.1000 151.800 main 341 331 __________O___ -1 -19.1000 151.800 7 4 0
1925153S19152 1925 21 SP EA NOT_NAMED 1925-06-01 15:00:00 NR -19.3032 151.803 main 331 322 __________P___ -1 -19.3032 151.803 7 4 0
1925153S19152 1925 21 SP EA NOT_NAMED 1925-06-01 18:00:00 NR -19.5151 151.805 main 322 312 __________P___ -1 -19.5151 151.805 7 4 0
1925153S19152 1925 21 SP EA NOT_NAMED 1925-06-01 21:00:00 NR -19.7444 151.804 main 312 291 __________P___ -1 -19.7444 151.804 7 5 0
1925153S19152 1925 21 SP EA NOT_NAMED 1925-06-02 00:00:00 NR -20.0000 151.800 main 291 260 __________O___ -1 -20.0000 151.800 7 5 182
1925153S19152 1925 21 SP EA NOT_NAMED 1925-06-02 03:00:00 NR -20.2865 151.789 main 260 231 __________P___ -1 -20.2865 151.789 7 6 184
1925153S19152 1925 21 SP EA NOT_NAMED 1925-06-02 06:00:00 NR -20.5924 151.760 main 231 196 __________P___ -1 -20.5924 151.760 7 6 187
1925153S19152 1925 21 SP EA NOT_NAMED 1925-06-02 09:00:00 NR -20.9021 151.701 main 196 163 __________P___ -1 -20.9021 151.701 7 6 194
1925153S19152 1925 21 SP EA NOT_NAMED 1925-06-02 12:00:00 NR -21.2000 151.600 main 163 133 __________O___ -1 -21.2000 151.600 7 6 205
1925153S19152 1925 21 SP EA NOT_NAMED 1925-06-02 15:00:00 NR -21.4280 151.439 main 133 103 __________P___ -1 -21.4280 151.439 7 6 217
1925153S19152 1925 21 SP EA NOT_NAMED 1925-06-02 18:00:00 NR -21.6477 151.237 main 103 63 __________P___ -1 -21.6477 151.237 7 6 220
1925153S19152 1925 21 SP EA NOT_NAMED 1925-06-02 21:00:00 NR -21.8936 151.017 main 63 24 __________P___ -1 -21.8936 151.017 7 7 216
1925153S19152 1925 21 SP EA NOT_NAMED 1925-06-03 00:00:00 NR -22.2000 150.800 main 24 0 __________O___ -1 -22.2000 150.800 7 9 212
1925153S19152 1925 21 SP EA NOT_NAMED 1925-06-03 03:00:00 NR -22.6305 150.519 main 10 0 __________P___ -1 -22.6305 150.519 7 11 208
1925153S19152 1925 21 SP EA NOT_NAMED 1925-06-03 06:00:00 NR -23.1196 150.259 main 0 0 __________P___ -1 -23.1196 150.259 7 11 201
1925153S19152 1925 21 SP EA NOT_NAMED 1925-06-03 09:00:00 NR -23.6238 150.094 main 0 0 __________P___ -1 -23.6238 150.094 7 10 189
1925153S19152 1925 21 SP EA NOT_NAMED 1925-06-03 12:00:00 NR -24.1000 150.100 main 0 0 __________O___ -1 -24.1000 150.100 7 9 163
1925153S19152 1925 21 SP EA NOT_NAMED 1925-06-03 15:00:00 NR -24.5237 150.400 main 0 0 __________P___ -1 -24.5237 150.400 7 11 139
1925153S19152 1925 21 SP EA NOT_NAMED 1925-06-03 18:00:00 NR -24.9071 150.868 main 0 0 __________P___ -1 -24.9071 150.868 7 12 128
1925153S19152 1925 21 SP EA NOT_NAMED 1925-06-03 21:00:00 NR -25.2366 151.403 main 0 0 __________P___ -1 -25.2366 151.403 7 11 122
1925153S19152 1925 21 SP EA NOT_NAMED 1925-06-04 00:00:00 NR -25.5000 151.900 main 0 0 __________O___ -1 -25.5000 151.900 7 9 122
1925153S19152 1925 21 SP EA NOT_NAMED 1925-06-04 03:00:00 NR -25.6970 152.209 main 0 0 __________P___ -1 -25.6970 152.209 7 6 123
1925153S19152 1925 21 SP EA NOT_NAMED 1925-06-04 06:00:00 NR -25.8315 152.462 main 0 0 __________P___ -1 -25.8315 152.462 7 5 118
1925153S19152 1925 21 SP EA NOT_NAMED 1925-06-04 09:00:00 NR -25.9253 152.683 main 0 0 __________P___ -1 -25.9253 152.683 7 4 113
1925153S19152 1925 21 SP EA NOT_NAMED 1925-06-04 12:00:00 NR -26.0000 152.900 main 0 0 __________O___ -1 -26.0000 152.900 7 4 110
1925153S19152 1925 21 SP EA NOT_NAMED 1925-06-04 15:00:00 NR -26.0642 153.106 main 0 0 __________P___ -1 -26.0642 153.106 7 4 107
1925153S19152 1925 21 SP EA NOT_NAMED 1925-06-04 18:00:00 NR -26.1187 153.319 main 19 19 __________P___ -1 -26.1187 153.319 7 4 107
1925153S19152 1925 21 SP EA NOT_NAMED 1925-06-04 21:00:00 NR -26.1889 153.572 main 49 49 __________P___ -1 -26.1889 153.572 7 6 109
1925153S19152 1925 21 SP EA NOT_NAMED 1925-06-05 00:00:00 NR -26.3000 153.900 main 79 79 __________O___ -1 -26.3000 153.900 7 8 113
1925153S19152 1925 21 SP EA NOT_NAMED 1925-06-05 03:00:00 NR -26.4826 154.353 main 129 129 __________P___ -1 -26.4826 154.353 7 10 115
1925153S19152 1925 21 SP EA NOT_NAMED 1925-06-05 06:00:00 NR -26.7061 154.882 main 174 174 __________P___ -1 -26.7061 154.882 7 11 116
1925153S19152 1925 21 SP EA NOT_NAMED 1925-06-05 09:00:00 NR -26.9513 155.444 main 214 214 __________P___ -1 -26.9513 155.444 7 11 116
1925153S19152 1925 21 SP EA NOT_NAMED 1925-06-05 12:00:00 NR -27.2000 156.000 main 261 261 __________O___ -1 -27.2000 156.000 7 10 115
1925153S19152 1925 21 SP EA NOT_NAMED 1925-06-05 15:00:00 NR -27.3791 156.472 main 298 298 __________P___ -1 -27.3791 156.472 7 9 114
1925153S19152 1925 21 SP EA NOT_NAMED 1925-06-05 18:00:00 NR -27.5658 156.932 main 330 330 __________P___ -1 -27.5658 156.932 7 9 117
1925153S19152 1925 21 SP EA NOT_NAMED 1925-06-05 21:00:00 NR -27.7946 157.401 main 375 375 __________P___ -1 -27.7946 157.401 7 10 122
1925153S19152 1925 21 SP EA NOT_NAMED 1925-06-06 00:00:00 NR -28.1000 157.900 main 421 421 __________O___ -1 -28.1000 157.900 7 12 127
1925153S19152 1925 21 SP EA NOT_NAMED 1925-06-06 03:00:00 NR -28.4966 158.464 main 478 478 __________P___ -1 -28.4966 158.464 7 13 130
1925153S19152 1925 21 SP EA NOT_NAMED 1925-06-06 06:00:00 NR -28.9726 159.063 main 534 534 __________P___ -1 -28.9726 159.063 7 15 134
1925153S19152 1925 21 SP EA NOT_NAMED 1925-06-06 09:00:00 NR -29.5122 159.681 main 595 595 __________P___ -1 -29.5122 159.681 7 16 136
1925153S19152 1925 21 SP MM NOT_NAMED 1925-06-06 12:00:00 NR -30.1000 160.300 main 661 661 __________O___ -1 -30.1000 160.300 7 16 139
1925153S19152 1925 21 SP MM NOT_NAMED 1925-06-06 15:00:00 NR -30.7222 160.908 main 731 731 __________P___ -1 -30.7222 160.908 7 16 141
1925153S19152 1925 21 SP MM NOT_NAMED 1925-06-06 18:00:00 NR -31.3690 161.506 main 797 797 __________P___ -1 -31.3690 161.506 7 17 142
1925153S19152 1925 21 SP MM NOT_NAMED 1925-06-06 21:00:00 NR -32.0313 162.102 main 857 857 __________P___ -1 -32.0313 162.102 7 17 143
1925153S19152 1925 21 SP MM NOT_NAMED 1925-06-07 00:00:00 NR -32.7000 162.700 main 921 __________O___ -1 -32.7000 162.700 7 17 143

デジタル台風データ・検索

IBTrACS Databaseについて

本データベースは、米国NOAAが公開する1842年以降の世界の熱帯低気圧のベストトラックデータアーカイブInternational Best Track Archive for Climate Stewardship (IBTrACS)を、ウェブで閲覧しやすい形式に変換したものです。

最終更新日:2021-10-21